sensor_id;sensor_type;location;lat;lon;timestamp;pressure;altitude;pressure_sealevel;temperature;humidity
40592;BME280;26301;42.832;23.918;2022-12-16T00:00:02;92856.59;;;7.95;100.00
40592;BME280;26301;42.832;23.918;2022-12-16T00:02:28;92869.69;;;7.82;100.00
40592;BME280;26301;42.832;23.918;2022-12-16T00:04:54;92860.75;;;7.61;100.00
40592;BME280;26301;42.832;23.918;2022-12-16T00:07:21;92847.31;;;7.24;100.00
40592;BME280;26301;42.832;23.918;2022-12-16T00:09:47;92869.41;;;7.25;100.00
40592;BME280;26301;42.832;23.918;2022-12-16T00:12:13;92876.25;;;7.19;100.00
40592;BME280;26301;42.832;23.918;2022-12-16T00:14:38;92882.94;;;7.20;100.00
40592;BME280;26301;42.832;23.918;2022-12-16T00:17:04;92875.19;;;7.08;100.00
40592;BME280;26301;42.832;23.918;2022-12-16T00:19:29;92893.81;;;6.92;100.00
40592;BME280;26301;42.832;23.918;2022-12-16T00:21:56;92888.63;;;6.80;100.00
40592;BME280;26301;42.832;23.918;2022-12-16T00:24:21;92876.63;;;6.62;100.00
40592;BME280;26301;42.832;23.918;2022-12-16T00:26:47;92878.47;;;6.55;100.00
40592;BME280;26301;42.832;23.918;2022-12-16T00:29:13;92909.53;;;6.66;100.00
40592;BME280;26301;42.832;23.918;2022-12-16T00:31:38;92891.16;;;6.69;100.00
40592;BME280;26301;42.832;23.918;2022-12-16T00:34:04;92905.88;;;7.03;100.00
40592;BME280;26301;42.832;23.918;2022-12-16T00:36:29;92902.66;;;7.08;100.00
40592;BME280;26301;42.832;23.918;2022-12-16T00:38:55;92898.28;;;7.50;100.00
40592;BME280;26301;42.832;23.918;2022-12-16T00:41:20;92906.34;;;7.54;100.00
40592;BME280;26301;42.832;23.918;2022-12-16T00:43:46;92906.22;;;7.37;100.00
40592;BME280;26301;42.832;23.918;2022-12-16T00:46:12;92907.47;;;7.46;100.00
40592;BME280;26301;42.832;23.918;2022-12-16T00:48:38;92910.41;;;7.85;100.00
40592;BME280;26301;42.832;23.918;2022-12-16T00:51:04;92871.03;;;7.73;100.00
40592;BME280;26301;42.832;23.918;2022-12-16T00:53:29;92875.59;;;8.06;100.00
40592;BME280;26301;42.832;23.918;2022-12-16T00:56:07;92857.59;;;8.06;100.00
40592;BME280;26301;42.832;23.918;2022-12-16T00:58:33;92877.38;;;8.17;100.00
40592;BME280;26301;42.832;23.918;2022-12-16T01:00:58;92879.41;;;8.15;100.00
40592;BME280;26301;42.832;23.918;2022-12-16T01:03:24;92857.25;;;8.14;100.00
40592;BME280;26301;42.832;23.918;2022-12-16T01:05:50;92875.88;;;8.33;100.00
40592;BME280;26301;42.832;23.918;2022-12-16T01:08:16;92863.00;;;8.33;100.00
40592;BME280;26301;42.832;23.918;2022-12-16T01:10:41;92844.91;;;8.28;98.94
40592;BME280;26301;42.832;23.918;2022-12-16T01:13:07;92860.13;;;8.99;95.13
40592;BME280;26301;42.832;23.918;2022-12-16T01:15:33;92838.47;;;9.28;93.04
40592;BME280;26301;42.832;23.918;2022-12-16T01:17:59;92820.34;;;9.40;92.22
40592;BME280;26301;42.832;23.918;2022-12-16T01:20:24;92820.41;;;9.62;92.70
40592;BME280;26301;42.832;23.918;2022-12-16T01:22:50;92816.75;;;9.41;95.53
40592;BME280;26301;42.832;23.918;2022-12-16T01:25:15;92810.50;;;9.20;96.72
40592;BME280;26301;42.832;23.918;2022-12-16T01:27:42;92808.16;;;9.02;97.16
40592;BME280;26301;42.832;23.918;2022-12-16T01:30:09;92823.66;;;8.90;97.61
40592;BME280;26301;42.832;23.918;2022-12-16T01:32:35;92771.53;;;8.25;99.92
40592;BME280;26301;42.832;23.918;2022-12-16T01:35:01;92735.34;;;7.75;98.77
40592;BME280;26301;42.832;23.918;2022-12-16T01:37:26;92805.25;;;8.12;100.00
40592;BME280;26301;42.832;23.918;2022-12-16T01:39:52;92792.53;;;7.82;100.00
40592;BME280;26301;42.832;23.918;2022-12-16T01:42:20;92809.75;;;7.82;100.00
40592;BME280;26301;42.832;23.918;2022-12-16T01:44:48;92817.03;;;7.85;100.00
40592;BME280;26301;42.832;23.918;2022-12-16T01:47:17;92747.13;;;7.24;100.00
40592;BME280;26301;42.832;23.918;2022-12-16T01:49:48;92812.59;;;7.68;100.00
40592;BME280;26301;42.832;23.918;2022-12-16T01:52:24;92773.84;;;7.35;100.00
40592;BME280;26301;42.832;23.918;2022-12-16T01:55:02;92797.63;;;7.42;100.00
40592;BME280;26301;42.832;23.918;2022-12-16T01:57:38;92778.59;;;7.31;100.00
40592;BME280;26301;42.832;23.918;2022-12-16T02:00:07;92791.25;;;7.44;100.00
40592;BME280;26301;42.832;23.918;2022-12-16T02:02:33;92770.56;;;7.16;100.00
40592;BME280;26301;42.832;23.918;2022-12-16T02:04:59;92769.22;;;7.01;100.00
40592;BME280;26301;42.832;23.918;2022-12-16T02:07:43;92794.34;;;7.11;100.00
40592;BME280;26301;42.832;23.918;2022-12-16T02:10:13;92770.31;;;6.82;100.00
40592;BME280;26301;42.832;23.918;2022-12-16T02:39:51;92722.38;;;5.92;100.00
40592;BME280;26301;42.832;23.918;2022-12-16T02:42:27;92733.06;;;6.07;100.00
40592;BME280;26301;42.832;23.918;2022-12-16T02:45:14;92746.34;;;6.16;100.00
40592;BME280;26301;42.832;23.918;2022-12-16T02:47:43;92687.00;;;5.82;100.00
40592;BME280;26301;42.832;23.918;2022-12-16T02:50:22;92744.97;;;6.32;100.00
40592;BME280;26301;42.832;23.918;2022-12-16T02:52:49;92738.28;;;6.31;100.00
40592;BME280;26301;42.832;23.918;2022-12-16T02:55:16;92718.91;;;6.16;100.00
40592;BME280;26301;42.832;23.918;2022-12-16T03:00:20;92746.88;;;6.90;100.00
40592;BME280;26301;42.832;23.918;2022-12-16T03:02:58;92742.63;;;6.84;100.00
40592;BME280;26301;42.832;23.918;2022-12-16T03:05:32;92735.50;;;6.86;100.00
40592;BME280;26301;42.832;23.918;2022-12-16T03:08:02;92745.75;;;6.98;100.00
40592;BME280;26301;42.832;23.918;2022-12-16T03:10:33;92747.44;;;7.04;100.00
40592;BME280;26301;42.832;23.918;2022-12-16T03:13:00;92748.56;;;6.96;100.00
40592;BME280;26301;42.832;23.918;2022-12-16T03:15:29;92780.75;;;7.22;100.00
40592;BME280;26301;42.832;23.918;2022-12-16T03:17:59;92779.72;;;7.12;100.00
40592;BME280;26301;42.832;23.918;2022-12-16T03:20:35;92782.97;;;7.07;100.00
40592;BME280;26301;42.832;23.918;2022-12-16T03:23:07;92813.69;;;7.14;100.00
40592;BME280;26301;42.832;23.918;2022-12-16T03:25:36;92808.66;;;7.07;100.00
40592;BME280;26301;42.832;23.918;2022-12-16T03:30:48;92815.47;;;7.13;100.00
40592;BME280;26301;42.832;23.918;2022-12-16T03:33:25;92817.69;;;7.09;100.00
40592;BME280;26301;42.832;23.918;2022-12-16T03:35:58;92819.59;;;7.14;100.00
40592;BME280;26301;42.832;23.918;2022-12-16T03:38:26;92745.50;;;6.64;100.00
40592;BME280;26301;42.832;23.918;2022-12-16T03:40:52;92767.09;;;6.98;100.00
40592;BME280;26301;42.832;23.918;2022-12-16T03:43:19;92801.41;;;7.27;100.00
40592;BME280;26301;42.832;23.918;2022-12-16T03:45:50;92781.09;;;7.26;100.00
40592;BME280;26301;42.832;23.918;2022-12-16T03:48:22;92786.44;;;7.60;95.45
40592;BME280;26301;42.832;23.918;2022-12-16T03:50:48;92771.13;;;7.65;97.62
40592;BME280;26301;42.832;23.918;2022-12-16T03:53:13;92795.13;;;7.82;98.69
40592;BME280;26301;42.832;23.918;2022-12-16T03:55:40;92804.81;;;8.04;95.88
40592;BME280;26301;42.832;23.918;2022-12-16T03:58:05;92784.03;;;7.93;97.12
40592;BME280;26301;42.832;23.918;2022-12-16T04:00:31;92788.06;;;7.89;100.00
40592;BME280;26301;42.832;23.918;2022-12-16T04:02:57;92792.50;;;8.06;98.02
40592;BME280;26301;42.832;23.918;2022-12-16T04:05:23;92807.41;;;8.32;96.27
40592;BME280;26301;42.832;23.918;2022-12-16T04:07:48;92766.56;;;8.07;96.77
40592;BME280;26301;42.832;23.918;2022-12-16T04:10:14;92777.47;;;8.26;95.79
40592;BME280;26301;42.832;23.918;2022-12-16T04:12:40;92782.47;;;8.33;95.23
40592;BME280;26301;42.832;23.918;2022-12-16T04:15:24;92781.38;;;8.29;96.40
40592;BME280;26301;42.832;23.918;2022-12-16T04:18:14;92785.19;;;8.26;93.56
40592;BME280;26301;42.832;23.918;2022-12-16T04:20:59;92829.22;;;8.41;95.01
40592;BME280;26301;42.832;23.918;2022-12-16T04:23:54;92821.47;;;8.53;93.93
40592;BME280;26301;42.832;23.918;2022-12-16T04:26:39;92827.81;;;8.62;89.38
40592;BME280;26301;42.832;23.918;2022-12-16T04:29:23;92831.72;;;8.93;90.27
40592;BME280;26301;42.832;23.918;2022-12-16T04:31:49;92826.13;;;8.97;89.97
40592;BME280;26301;42.832;23.918;2022-12-16T04:34:15;92788.31;;;8.85;89.81
40592;BME280;26301;42.832;23.918;2022-12-16T04:36:57;92827.22;;;9.18;86.11
40592;BME280;26301;42.832;23.918;2022-12-16T04:39:41;92812.06;;;9.55;84.01
40592;BME280;26301;42.832;23.918;2022-12-16T04:42:26;92803.63;;;9.43;87.48
40592;BME280;26301;42.832;23.918;2022-12-16T04:45:10;92819.13;;;9.81;81.25
40592;BME280;26301;42.832;23.918;2022-12-16T04:47:53;92798.63;;;9.92;82.22
40592;BME280;26301;42.832;23.918;2022-12-16T04:50:38;92804.91;;;10.01;82.03
40592;BME280;26301;42.832;23.918;2022-12-16T04:53:23;92810.81;;;10.18;78.94
40592;BME280;26301;42.832;23.918;2022-12-16T04:56:07;92806.22;;;10.42;77.84
40592;BME280;26301;42.832;23.918;2022-12-16T04:58:51;92803.56;;;10.37;77.99
40592;BME280;26301;42.832;23.918;2022-12-16T05:01:35;92787.53;;;10.57;75.38
40592;BME280;26301;42.832;23.918;2022-12-16T05:04:20;92817.22;;;10.82;74.95
40592;BME280;26301;42.832;23.918;2022-12-16T05:07:04;92797.22;;;10.99;73.49
40592;BME280;26301;42.832;23.918;2022-12-16T05:09:47;92825.53;;;11.16;72.98
40592;BME280;26301;42.832;23.918;2022-12-16T05:12:31;92807.25;;;11.23;71.76
40592;BME280;26301;42.832;23.918;2022-12-16T05:15:15;92833.56;;;11.52;71.24
40592;BME280;26301;42.832;23.918;2022-12-16T05:18:07;92820.44;;;11.58;72.14
40592;BME280;26301;42.832;23.918;2022-12-16T05:20:51;92823.97;;;11.47;71.39
40592;BME280;26301;42.832;23.918;2022-12-16T05:23:35;92800.19;;;11.50;70.10
40592;BME280;26301;42.832;23.918;2022-12-16T05:26:19;92809.09;;;11.64;69.68
40592;BME280;26301;42.832;23.918;2022-12-16T05:29:03;92817.41;;;11.72;70.77
40592;BME280;26301;42.832;23.918;2022-12-16T05:31:47;92836.28;;;11.72;70.80
40592;BME280;26301;42.832;23.918;2022-12-16T05:34:31;92769.13;;;11.45;69.49
40592;BME280;26301;42.832;23.918;2022-12-16T05:37:15;92813.28;;;11.71;69.76
40592;BME280;26301;42.832;23.918;2022-12-16T05:40:01;92837.38;;;11.81;70.35
40592;BME280;26301;42.832;23.918;2022-12-16T05:42:48;92820.22;;;11.70;69.01
40592;BME280;26301;42.832;23.918;2022-12-16T05:45:33;92857.38;;;11.86;69.65
40592;BME280;26301;42.832;23.918;2022-12-16T05:48:17;92858.47;;;11.95;68.65
40592;BME280;26301;42.832;23.918;2022-12-16T05:51:01;92853.78;;;11.92;69.40
40592;BME280;26301;42.832;23.918;2022-12-16T05:53:45;92865.50;;;12.05;68.57
40592;BME280;26301;42.832;23.918;2022-12-16T05:56:29;92871.75;;;12.09;68.11
40592;BME280;26301;42.832;23.918;2022-12-16T05:59:13;92885.69;;;12.03;68.77
40592;BME280;26301;42.832;23.918;2022-12-16T06:01:57;92877.91;;;12.03;68.01
40592;BME280;26301;42.832;23.918;2022-12-16T06:04:41;92878.09;;;11.91;68.81
40592;BME280;26301;42.832;23.918;2022-12-16T06:07:25;92919.34;;;12.03;68.73
40592;BME280;26301;42.832;23.918;2022-12-16T06:10:09;92921.16;;;12.02;68.58
40592;BME280;26301;42.832;23.918;2022-12-16T06:12:53;92857.22;;;11.65;68.78
40592;BME280;26301;42.832;23.918;2022-12-16T06:15:36;92923.00;;;12.07;69.00
40592;BME280;26301;42.832;23.918;2022-12-16T06:18:20;92916.31;;;12.16;68.13
40592;BME280;26301;42.832;23.918;2022-12-16T06:21:04;92916.56;;;12.09;69.22
40592;BME280;26301;42.832;23.918;2022-12-16T06:23:48;92929.22;;;12.11;68.25
40592;BME280;26301;42.832;23.918;2022-12-16T06:26:32;92927.41;;;12.06;68.75
40592;BME280;26301;42.832;23.918;2022-12-16T06:29:16;92936.47;;;12.09;69.12
40592;BME280;26301;42.832;23.918;2022-12-16T06:32:00;92951.53;;;12.17;68.26
40592;BME280;26301;42.832;23.918;2022-12-16T06:34:44;92930.56;;;12.13;66.58
40592;BME280;26301;42.832;23.918;2022-12-16T06:37:28;92873.50;;;11.66;66.89
40592;BME280;26301;42.832;23.918;2022-12-16T06:40:12;92958.09;;;12.30;67.56
40592;BME280;26301;42.832;23.918;2022-12-16T06:42:56;92913.97;;;12.09;67.06
40592;BME280;26301;42.832;23.918;2022-12-16T06:45:41;92928.72;;;12.14;70.32
40592;BME280;26301;42.832;23.918;2022-12-16T06:48:35;92944.31;;;12.19;68.65
40592;BME280;26301;42.832;23.918;2022-12-16T06:51:19;92962.28;;;12.36;68.43
40592;BME280;26301;42.832;23.918;2022-12-16T06:54:04;92966.16;;;12.33;68.77
40592;BME280;26301;42.832;23.918;2022-12-16T06:56:48;92933.06;;;12.46;66.33
40592;BME280;26301;42.832;23.918;2022-12-16T06:59:32;92943.72;;;12.49;65.79
40592;BME280;26301;42.832;23.918;2022-12-16T07:02:16;92938.13;;;12.73;65.21
40592;BME280;26301;42.832;23.918;2022-12-16T07:05:00;92916.81;;;12.55;67.51
40592;BME280;26301;42.832;23.918;2022-12-16T07:07:51;92912.63;;;12.49;65.38
40592;BME280;26301;42.832;23.918;2022-12-16T07:10:35;92937.13;;;12.84;65.86
40592;BME280;26301;42.832;23.918;2022-12-16T07:13:19;92906.47;;;12.66;67.10
40592;BME280;26301;42.832;23.918;2022-12-16T07:16:03;92944.72;;;13.01;64.62
40592;BME280;26301;42.832;23.918;2022-12-16T07:18:47;92934.31;;;12.96;64.25
40592;BME280;26301;42.832;23.918;2022-12-16T07:21:32;92953.31;;;13.17;64.56
40592;BME280;26301;42.832;23.918;2022-12-16T07:24:16;92941.91;;;13.13;63.79
40592;BME280;26301;42.832;23.918;2022-12-16T07:26:59;92885.03;;;12.86;62.46
40592;BME280;26301;42.832;23.918;2022-12-16T07:29:44;92944.50;;;13.23;62.14
40592;BME280;26301;42.832;23.918;2022-12-16T07:32:27;92920.66;;;13.21;62.11
40592;BME280;26301;42.832;23.918;2022-12-16T07:35:11;92886.13;;;13.00;63.09
40592;BME280;26301;42.832;23.918;2022-12-16T07:37:55;92932.63;;;13.32;63.50
40592;BME280;26301;42.832;23.918;2022-12-16T07:40:39;92947.19;;;13.43;61.88
40592;BME280;26301;42.832;23.918;2022-12-16T07:43:23;92948.78;;;13.55;61.35
40592;BME280;26301;42.832;23.918;2022-12-16T07:46:07;92914.75;;;13.46;61.96
40592;BME280;26301;42.832;23.918;2022-12-16T07:48:51;92943.09;;;13.73;60.81
40592;BME280;26301;42.832;23.918;2022-12-16T07:51:35;92960.47;;;13.78;61.23
40592;BME280;26301;42.832;23.918;2022-12-16T07:54:19;92955.00;;;13.89;59.67
40592;BME280;26301;42.832;23.918;2022-12-16T07:57:03;92942.03;;;13.79;60.98
40592;BME280;26301;42.832;23.918;2022-12-16T07:59:47;92939.19;;;13.76;60.69
40592;BME280;26301;42.832;23.918;2022-12-16T08:02:31;92950.59;;;13.95;58.65
40592;BME280;26301;42.832;23.918;2022-12-16T08:05:15;92938.69;;;13.99;60.45
40592;BME280;26301;42.832;23.918;2022-12-16T08:07:59;92953.97;;;14.11;59.95
40592;BME280;26301;42.832;23.918;2022-12-16T08:10:43;92946.44;;;14.19;59.47
40592;BME280;26301;42.832;23.918;2022-12-16T08:13:26;92943.09;;;14.14;59.89
40592;BME280;26301;42.832;23.918;2022-12-16T08:16:10;92943.84;;;14.19;59.54
40592;BME280;26301;42.832;23.918;2022-12-16T08:18:54;92947.22;;;14.15;58.32
40592;BME280;26301;42.832;23.918;2022-12-16T08:21:38;92952.94;;;14.22;59.17
40592;BME280;26301;42.832;23.918;2022-12-16T08:24:22;92967.72;;;14.32;59.70
40592;BME280;26301;42.832;23.918;2022-12-16T08:39:55;92936.31;;;15.19;56.33
40592;BME280;26301;42.832;23.918;2022-12-16T08:42:40;92938.66;;;15.20;56.80
40592;BME280;26301;42.832;23.918;2022-12-16T08:45:38;92926.22;;;15.07;56.08
40592;BME280;26301;42.832;23.918;2022-12-16T08:48:22;92911.09;;;15.19;55.68
40592;BME280;26301;42.832;23.918;2022-12-16T08:51:06;92936.59;;;15.17;56.22
40592;BME280;26301;42.832;23.918;2022-12-16T08:53:50;92911.56;;;15.21;54.38
40592;BME280;26301;42.832;23.918;2022-12-16T08:56:34;92908.28;;;15.05;55.62
40592;BME280;26301;42.832;23.918;2022-12-16T08:59:18;92932.59;;;15.30;55.54
40592;BME280;26301;42.832;23.918;2022-12-16T09:02:03;92917.19;;;15.44;55.73
40592;BME280;26301;42.832;23.918;2022-12-16T09:04:47;92907.25;;;15.51;55.07
40592;BME280;26301;42.832;23.918;2022-12-16T09:07:31;92911.66;;;15.50;53.88
40592;BME280;26301;42.832;23.918;2022-12-16T09:10:15;92888.56;;;15.44;54.63
40592;BME280;26301;42.832;23.918;2022-12-16T09:13:10;92881.31;;;15.36;54.86
40592;BME280;26301;42.832;23.918;2022-12-16T09:15:55;92906.16;;;15.57;55.17
40592;BME280;26301;42.832;23.918;2022-12-16T09:18:39;92897.53;;;15.62;54.14
40592;BME280;26301;42.832;23.918;2022-12-16T09:21:23;92894.13;;;15.66;55.83
40592;BME280;26301;42.832;23.918;2022-12-16T09:24:07;92885.00;;;15.74;54.15
40592;BME280;26301;42.832;23.918;2022-12-16T09:26:51;92902.44;;;15.73;54.04
40592;BME280;26301;42.832;23.918;2022-12-16T09:29:35;92913.41;;;15.70;54.19
40592;BME280;26301;42.832;23.918;2022-12-16T09:32:19;92889.97;;;15.65;54.94
40592;BME280;26301;42.832;23.918;2022-12-16T09:35:03;92891.53;;;15.61;54.24
40592;BME280;26301;42.832;23.918;2022-12-16T09:37:47;92884.22;;;15.73;55.21
40592;BME280;26301;42.832;23.918;2022-12-16T09:40:32;92891.38;;;15.87;54.04
40592;BME280;26301;42.832;23.918;2022-12-16T09:46:54;92890.53;;;15.96;53.38
40592;BME280;26301;42.832;23.918;2022-12-16T09:49:47;92893.13;;;15.96;54.68
40592;BME280;26301;42.832;23.918;2022-12-16T09:52:38;92846.41;;;15.76;54.04
40592;BME280;26301;42.832;23.918;2022-12-16T09:55:31;92894.16;;;16.00;54.19
40592;BME280;26301;42.832;23.918;2022-12-16T09:58:18;92871.41;;;16.06;53.38
40592;BME280;26301;42.832;23.918;2022-12-16T10:01:05;92877.72;;;16.00;53.91
40592;BME280;26301;42.832;23.918;2022-12-16T10:03:49;92871.47;;;16.01;55.13
40592;BME280;26301;42.832;23.918;2022-12-16T10:25:18;92868.88;;;16.01;56.05
40592;BME280;26301;42.832;23.918;2022-12-16T10:31:27;92865.94;;;16.08;53.82
40592;BME280;26301;42.832;23.918;2022-12-16T10:34:14;92878.44;;;16.35;54.15
40592;BME280;26301;42.832;23.918;2022-12-16T10:37:00;92873.81;;;16.27;53.36
40592;BME280;26301;42.832;23.918;2022-12-16T10:39:52;92881.59;;;16.32;54.53
40592;BME280;26301;42.832;23.918;2022-12-16T10:42:53;92870.34;;;16.36;53.43
40592;BME280;26301;42.832;23.918;2022-12-16T10:45:44;92877.72;;;16.29;55.55
40592;BME280;26301;42.832;23.918;2022-12-16T10:48:32;92862.47;;;16.41;54.20
40592;BME280;26301;42.832;23.918;2022-12-16T10:51:20;92859.88;;;16.41;54.15
40592;BME280;26301;42.832;23.918;2022-12-16T10:54:26;92823.38;;;16.17;54.12
40592;BME280;26301;42.832;23.918;2022-12-16T11:00:20;92844.38;;;16.50;53.17
40592;BME280;26301;42.832;23.918;2022-12-16T11:03:35;92837.63;;;16.49;53.51
40592;BME280;26301;42.832;23.918;2022-12-16T11:06:25;92808.59;;;16.37;53.66
40592;BME280;26301;42.832;23.918;2022-12-16T11:09:27;92827.59;;;16.61;52.54
40592;BME280;26301;42.832;23.918;2022-12-16T11:12:25;92855.69;;;16.64;53.89
40592;BME280;26301;42.832;23.918;2022-12-16T11:15:29;92857.28;;;16.60;54.20
40592;BME280;26301;42.832;23.918;2022-12-16T11:18:21;92839.13;;;16.79;51.95
40592;BME280;26301;42.832;23.918;2022-12-16T11:21:20;92843.44;;;16.65;52.53
40592;BME280;26301;42.832;23.918;2022-12-16T11:24:11;92842.22;;;16.81;51.83
40592;BME280;26301;42.832;23.918;2022-12-16T11:27:22;92842.00;;;16.78;53.85
40592;BME280;26301;42.832;23.918;2022-12-16T11:30:20;92844.41;;;16.93;51.83
40592;BME280;26301;42.832;23.918;2022-12-16T11:33:20;92850.13;;;16.76;52.41
40592;BME280;26301;42.832;23.918;2022-12-16T11:38:54;92868.34;;;16.52;52.21
40592;BME280;26301;42.832;23.918;2022-12-16T11:41:47;92862.50;;;16.36;52.84
40592;BME280;26301;42.832;23.918;2022-12-16T11:44:35;92862.06;;;16.29;53.04
40592;BME280;26301;42.832;23.918;2022-12-16T11:47:49;92875.47;;;16.17;53.36
40592;BME280;26301;42.832;23.918;2022-12-16T11:50:54;92851.97;;;15.98;54.37
40592;BME280;26301;42.832;23.918;2022-12-16T11:53:53;92871.47;;;16.01;53.83
40592;BME280;26301;42.832;23.918;2022-12-16T11:56:43;92855.91;;;15.91;55.41
40592;BME280;26301;42.832;23.918;2022-12-16T11:59:50;92880.31;;;16.00;54.85
40592;BME280;26301;42.832;23.918;2022-12-16T12:02:55;92876.41;;;16.03;55.46
40592;BME280;26301;42.832;23.918;2022-12-16T12:20:47;92890.00;;;16.53;53.49
40592;BME280;26301;42.832;23.918;2022-12-16T12:26:28;92844.50;;;16.16;53.96
40592;BME280;26301;42.832;23.918;2022-12-16T12:29:37;92841.94;;;16.11;54.42
40592;BME280;26301;42.832;23.918;2022-12-16T12:32:39;92862.78;;;16.11;54.76
40592;BME280;26301;42.832;23.918;2022-12-16T12:41:49;92860.53;;;15.99;54.93
40592;BME280;26301;42.832;23.918;2022-12-16T12:47:49;92850.50;;;15.87;55.40
40592;BME280;26301;42.832;23.918;2022-12-16T12:51:06;92870.94;;;16.04;55.05
40592;BME280;26301;42.832;23.918;2022-12-16T12:54:31;92863.88;;;16.05;54.80
40592;BME280;26301;42.832;23.918;2022-12-16T12:57:19;92867.25;;;16.05;54.78
40592;BME280;26301;42.832;23.918;2022-12-16T13:00:20;92855.06;;;16.00;53.48
40592;BME280;26301;42.832;23.918;2022-12-16T13:06:02;92860.88;;;15.92;54.84
40592;BME280;26301;42.832;23.918;2022-12-16T13:11:35;92874.34;;;15.99;55.52
40592;BME280;26301;42.832;23.918;2022-12-16T13:20:43;92876.03;;;15.85;55.32
40592;BME280;26301;42.832;23.918;2022-12-16T13:26:17;92859.41;;;15.81;55.23
40592;BME280;26301;42.832;23.918;2022-12-16T13:29:23;92850.50;;;15.87;55.27
40592;BME280;26301;42.832;23.918;2022-12-16T13:35:00;92863.50;;;15.87;55.52
40592;BME280;26301;42.832;23.918;2022-12-16T13:37:55;92835.22;;;15.75;55.89
40592;BME280;26301;42.832;23.918;2022-12-16T13:41:16;92874.69;;;15.88;55.25
40592;BME280;26301;42.832;23.918;2022-12-16T13:44:10;92861.47;;;15.84;56.76
40592;BME280;26301;42.832;23.918;2022-12-16T13:46:55;92860.28;;;15.71;56.45
40592;BME280;26301;42.832;23.918;2022-12-16T13:49:44;92889.97;;;15.70;57.17
40592;BME280;26301;42.832;23.918;2022-12-16T13:55:38;92900.63;;;15.69;55.93
40592;BME280;26301;42.832;23.918;2022-12-16T13:58:38;92897.22;;;15.73;56.64
40592;BME280;26301;42.832;23.918;2022-12-16T14:01:37;92897.03;;;15.60;58.23
40592;BME280;26301;42.832;23.918;2022-12-16T14:04:30;92882.56;;;15.43;57.21
40592;BME280;26301;42.832;23.918;2022-12-16T14:07:16;92905.94;;;15.53;57.82
40592;BME280;26301;42.832;23.918;2022-12-16T14:10:02;92889.63;;;15.38;57.50
40592;BME280;26301;42.832;23.918;2022-12-16T14:13:09;92906.13;;;15.62;57.91
40592;BME280;26301;42.832;23.918;2022-12-16T14:19:44;92911.47;;;15.37;58.47
40592;BME280;26301;42.832;23.918;2022-12-16T14:25:41;92919.38;;;15.21;59.11
40592;BME280;26301;42.832;23.918;2022-12-16T14:28:36;92925.66;;;15.15;59.57
40592;BME280;26301;42.832;23.918;2022-12-16T14:31:38;92913.78;;;14.99;60.23
40592;BME280;26301;42.832;23.918;2022-12-16T14:34:25;92937.66;;;15.11;60.79
40592;BME280;26301;42.832;23.918;2022-12-16T14:37:20;92941.78;;;15.17;59.69
40592;BME280;26301;42.832;23.918;2022-12-16T14:40:19;92942.88;;;15.06;59.85
40592;BME280;26301;42.832;23.918;2022-12-16T14:43:27;92920.34;;;14.81;59.98
40592;BME280;26301;42.832;23.918;2022-12-16T14:46:41;92952.03;;;14.98;61.88
40592;BME280;26301;42.832;23.918;2022-12-16T14:49:27;92914.38;;;14.80;60.97
40592;BME280;26301;42.832;23.918;2022-12-16T14:52:17;92932.28;;;14.87;61.26
40592;BME280;26301;42.832;23.918;2022-12-16T14:55:16;92923.25;;;14.69;61.07
40592;BME280;26301;42.832;23.918;2022-12-16T14:58:08;92951.84;;;14.74;62.15
40592;BME280;26301;42.832;23.918;2022-12-16T15:00:53;92961.47;;;14.58;62.59
40592;BME280;26301;42.832;23.918;2022-12-16T15:03:44;92944.59;;;14.46;62.74
40592;BME280;26301;42.832;23.918;2022-12-16T15:06:35;92938.34;;;14.47;62.78
40592;BME280;26301;42.832;23.918;2022-12-16T15:09:33;92937.31;;;14.43;63.55
40592;BME280;26301;42.832;23.918;2022-12-16T15:12:22;92934.22;;;14.30;63.04
40592;BME280;26301;42.832;23.918;2022-12-16T15:15:14;92949.53;;;14.42;62.53
40592;BME280;26301;42.832;23.918;2022-12-16T15:17:59;92948.50;;;14.43;63.15
40592;BME280;26301;42.832;23.918;2022-12-16T15:20:48;92960.97;;;14.41;64.16
40592;BME280;26301;42.832;23.918;2022-12-16T15:23:33;92934.25;;;14.15;64.12
40592;BME280;26301;42.832;23.918;2022-12-16T15:26:23;92958.13;;;14.32;63.67
40592;BME280;26301;42.832;23.918;2022-12-16T15:29:27;92958.38;;;14.36;63.18
40592;BME280;26301;42.832;23.918;2022-12-16T15:35:11;92940.22;;;14.10;64.58
40592;BME280;26301;42.832;23.918;2022-12-16T15:44:02;92963.59;;;14.15;65.22
40592;BME280;26301;42.832;23.918;2022-12-16T15:46:47;92955.00;;;14.05;65.29
40592;BME280;26301;42.832;23.918;2022-12-16T15:49:37;92963.34;;;14.12;64.81
40592;BME280;26301;42.832;23.918;2022-12-16T15:52:30;92971.13;;;14.07;65.36
40592;BME280;26301;42.832;23.918;2022-12-16T15:55:34;92963.88;;;13.93;65.16
40592;BME280;26301;42.832;23.918;2022-12-16T15:58:31;92950.88;;;13.93;65.99
40592;BME280;26301;42.832;23.918;2022-12-16T16:01:19;92963.84;;;14.09;64.46
40592;BME280;26301;42.832;23.918;2022-12-16T16:04:03;92975.28;;;14.03;65.48
40592;BME280;26301;42.832;23.918;2022-12-16T16:06:58;92971.38;;;13.95;67.23
40592;BME280;26301;42.832;23.918;2022-12-16T16:09:42;92972.16;;;13.90;66.81
40592;BME280;26301;42.832;23.918;2022-12-16T16:12:25;92969.28;;;13.87;65.33
40592;BME280;26301;42.832;23.918;2022-12-16T16:15:12;92963.84;;;13.78;65.58
40592;BME280;26301;42.832;23.918;2022-12-16T16:18:03;92966.19;;;13.85;65.33
40592;BME280;26301;42.832;23.918;2022-12-16T16:20:48;92975.78;;;13.89;66.85
40592;BME280;26301;42.832;23.918;2022-12-16T16:23:33;92948.78;;;13.65;68.09
40592;BME280;26301;42.832;23.918;2022-12-16T16:26:20;92970.59;;;13.74;67.75
40592;BME280;26301;42.832;23.918;2022-12-16T16:29:05;92970.06;;;13.62;68.27
40592;BME280;26301;42.832;23.918;2022-12-16T16:31:49;92961.47;;;13.46;69.72